ADDS TAF Data INFO
IDs: Format: Raw Decoded Include METARs

Data at: 2333 UTC 18 Jan 2018

TAF ETSI 181415Z 1815/1824 22020G40KT 9999 NSW SCT020 BKN045
  TEMPO 1815/1817 30030G50KT 4000 SHRA BKN015TCU BKN025
  BECMG 1817/1819 26012G30KT 9999 -RA SCT015 BKN030 CANCEL 1520